Time;durP1;ratioP1;P1;durP2;ratioP2;P2;SDS_P1;SDS_P2;PMS_P1;PMS_P2;Temp;Humidity;BMP_temperature;BMP_pressure;BME280_temperature;BME280_humidity;BME280_pressure;Samples;Min_cycle;Max_cycle;Signal;HPM_P1;HPM_P2
2021/09/22 00:02:12;;;;;;;11.63;6.32;;;;;;;;;;4992839;28;20138;-67
2021/09/22 00:04:41;;;;;;;11.02;5.65;;;;;;;;;;4993231;28;20043;-69
2021/09/22 00:07:10;;;;;;;14.45;6.45;;;;;;;;;;4993230;28;20086;-67
2021/09/22 00:09:39;;;;;;;11.18;5.95;;;;;;;;;;4993632;28;20133;-68
2021/09/22 00:12:07;;;;;;;12.35;5.90;;;;;;;;;;4993681;28;20482;-67
2021/09/22 00:14:35;;;;;;;13.15;5.70;;;;;;;;;;4993273;28;20049;-67
2021/09/22 00:17:04;;;;;;;12.60;5.50;;;;;;;;;;4993805;28;20394;-67
2021/09/22 00:19:33;;;;;;;11.80;6.57;;;;;;;;;;4996023;28;20042;-67
2021/09/22 00:22:01;;;;;;;12.82;5.82;;;;;;;;;;4993673;28;20137;-69
2021/09/22 00:24:30;;;;;;;9.80;5.68;;;;;;;;;;4992685;28;20369;-67
2021/09/22 00:26:59;;;;;;;12.85;6.18;;;;;;;;;;4994012;28;20089;-67
2021/09/22 00:29:27;;;;;;;11.70;6.00;;;;;;;;;;4992800;28;20153;-67
2021/09/22 00:31:56;;;;;;;13.25;6.82;;;;;;;;;;4993751;28;20558;-67
2021/09/22 00:34:24;;;;;;;13.35;6.47;;;;;;;;;;4992902;28;20046;-68
2021/09/22 00:36:52;;;;;;;13.80;5.97;;;;;;;;;;4992601;28;20054;-69
2021/09/22 00:39:20;;;;;;;11.68;6.05;;;;;;;;;;4993517;28;20060;-67
2021/09/22 00:41:50;;;;;;;12.35;6.45;;;;;;;;;;4993905;28;20046;-68
2021/09/22 00:44:18;;;;;;;12.02;6.57;;;;;;;;;;4983621;28;20059;-68
2021/09/22 00:46:46;;;;;;;13.02;6.22;;;;;;;;;;4992707;28;20473;-67
2021/09/22 00:49:15;;;;;;;10.70;6.13;;;;;;;;;;4993127;28;20109;-67
2021/09/22 00:51:43;;;;;;;10.85;6.22;;;;;;;;;;4992757;28;20141;-67
2021/09/22 00:54:12;;;;;;;12.43;5.93;;;;;;;;;;4992144;28;20141;-67
2021/09/22 00:56:41;;;;;;;11.55;6.22;;;;;;;;;;4992986;28;20137;-67
2021/09/22 00:59:11;;;;;;;13.90;6.15;;;;;;;;;;4993107;28;20480;-67
2021/09/22 01:01:39;;;;;;;16.90;6.93;;;;;;;;;;4993593;28;20141;-68
2021/09/22 01:04:08;;;;;;;10.65;5.47;;;;;;;;;;4992687;28;20438;-68
2021/09/22 01:06:36;;;;;;;12.60;6.25;;;;;;;;;;4992668;28;20053;-68
2021/09/22 01:09:04;;;;;;;15.85;6.40;;;;;;;;;;4992839;28;20081;-67
2021/09/22 01:11:35;;;;;;;13.52;6.30;;;;;;;;;;4992352;28;20129;-67
2021/09/22 01:14:03;;;;;;;12.07;5.95;;;;;;;;;;4992695;28;20082;-68
2021/09/22 01:16:33;;;;;;;11.63;5.80;;;;;;;;;;4992794;28;20047;-67
2021/09/22 01:19:01;;;;;;;11.90;6.50;;;;;;;;;;4992989;28;20050;-67
2021/09/22 01:21:30;;;;;;;12.75;6.38;;;;;;;;;;4992055;28;20057;-67
2021/09/22 01:23:59;;;;;;;13.90;6.47;;;;;;;;;;4992289;28;20132;-67
2021/09/22 01:26:27;;;;;;;14.18;6.78;;;;;;;;;;4991699;28;20050;-67
2021/09/22 01:28:55;;;;;;;12.48;6.90;;;;;;;;;;4992399;28;20407;-67
2021/09/22 01:31:23;;;;;;;12.38;6.10;;;;;;;;;;4991257;28;20101;-67
2021/09/22 01:33:52;;;;;;;13.27;6.57;;;;;;;;;;4992214;28;20048;-68
2021/09/22 01:36:20;;;;;;;15.68;6.63;;;;;;;;;;4992105;28;20522;-68
2021/09/22 01:38:50;;;;;;;11.32;5.82;;;;;;;;;;4988209;28;20064;-68
2021/09/22 01:41:18;;;;;;;11.95;6.30;;;;;;;;;;4991801;28;20161;-68
2021/09/22 01:43:46;;;;;;;13.90;6.65;;;;;;;;;;4985177;28;20146;-67
2021/09/22 01:46:15;;;;;;;14.85;5.75;;;;;;;;;;4992540;28;20056;-67
2021/09/22 01:48:43;;;;;;;12.77;6.63;;;;;;;;;;4991994;28;20049;-69
2021/09/22 01:51:12;;;;;;;13.10;6.53;;;;;;;;;;4991892;28;20449;-68
2021/09/22 01:53:40;;;;;;;14.70;6.88;;;;;;;;;;4991683;28;20046;-67
2021/09/22 01:56:10;;;;;;;13.15;6.75;;;;;;;;;;4992014;28;20148;-67
2021/09/22 01:58:38;;;;;;;11.45;5.63;;;;;;;;;;4991310;28;20050;-67
2021/09/22 02:01:08;;;;;;;13.10;6.05;;;;;;;;;;4992382;28;20414;-68
2021/09/22 02:03:38;;;;;;;14.60;6.60;;;;;;;;;;4990162;28;20038;-68
2021/09/22 02:06:06;;;;;;;14.55;6.82;;;;;;;;;;4992032;28;20046;-68
2021/09/22 02:08:35;;;;;;;11.38;6.22;;;;;;;;;;4993010;28;20085;-68
2021/09/22 02:11:03;;;;;;;12.13;5.93;;;;;;;;;;4991784;28;20052;-67
2021/09/22 02:13:32;;;;;;;11.93;6.05;;;;;;;;;;4990636;28;20133;-67
2021/09/22 02:16:01;;;;;;;12.35;6.05;;;;;;;;;;4991955;28;20072;-68
2021/09/22 02:18:29;;;;;;;12.10;6.28;;;;;;;;;;4991102;28;20141;-67
2021/09/22 02:20:57;;;;;;;12.50;6.50;;;;;;;;;;4991377;28;20059;-67
2021/09/22 02:23:25;;;;;;;12.68;6.22;;;;;;;;;;4991116;28;20054;-67
2021/09/22 02:25:54;;;;;;;11.77;5.72;;;;;;;;;;4991519;28;20570;-67
2021/09/22 02:28:22;;;;;;;13.85;6.90;;;;;;;;;;4990755;28;20046;-69
2021/09/22 02:30:51;;;;;;;11.90;6.30;;;;;;;;;;4991548;28;20129;-67
2021/09/22 02:33:20;;;;;;;16.15;7.47;;;;;;;;;;4986067;28;20405;-67
2021/09/22 02:35:48;;;;;;;11.65;6.47;;;;;;;;;;4991564;28;20137;-69
2021/09/22 02:38:17;;;;;;;12.65;6.32;;;;;;;;;;4991575;28;20129;-67
2021/09/22 02:40:45;;;;;;;13.48;6.15;;;;;;;;;;4990711;28;20084;-67
2021/09/22 02:43:13;;;;;;;15.10;6.88;;;;;;;;;;4975384;28;20043;-67
2021/09/22 02:45:41;;;;;;;17.60;7.28;;;;;;;;;;4972754;28;20134;-67
2021/09/22 02:48:11;;;;;;;14.30;7.20;;;;;;;;;;4988053;28;20050;-67
2021/09/22 02:50:39;;;;;;;12.60;6.25;;;;;;;;;;4985173;28;20052;-69
2021/09/22 02:53:08;;;;;;;16.33;6.82;;;;;;;;;;4991066;28;20110;-67
2021/09/22 02:55:36;;;;;;;14.68;6.78;;;;;;;;;;4991044;28;20046;-67
2021/09/22 02:58:04;;;;;;;13.30;6.32;;;;;;;;;;4990875;28;20157;-67
2021/09/22 03:00:33;;;;;;;13.48;6.72;;;;;;;;;;4990829;28;20061;-67
2021/09/22 03:03:01;;;;;;;15.30;6.57;;;;;;;;;;4990136;28;20042;-66
2021/09/22 03:05:31;;;;;;;13.40;6.57;;;;;;;;;;4990416;28;20490;-68
2021/09/22 03:08:00;;;;;;;11.70;6.22;;;;;;;;;;4990908;28;20077;-68
2021/09/22 03:10:28;;;;;;;15.63;6.60;;;;;;;;;;4990566;28;20134;-67
2021/09/22 03:12:57;;;;;;;13.95;6.15;;;;;;;;;;4990705;28;20133;-67
2021/09/22 03:15:25;;;;;;;13.60;6.75;;;;;;;;;;4991158;28;20100;-68
2021/09/22 03:17:53;;;;;;;14.60;6.80;;;;;;;;;;4990287;28;20065;-68
2021/09/22 03:20:21;;;;;;;14.07;6.10;;;;;;;;;;4990354;28;20086;-67
2021/09/22 03:22:51;;;;;;;12.88;6.55;;;;;;;;;;4990431;28;20133;-66
2021/09/22 03:25:20;;;;;;;14.75;6.80;;;;;;;;;;4987886;28;20052;-69
2021/09/22 03:27:48;;;;;;;12.57;6.60;;;;;;;;;;4987364;28;20077;-67
2021/09/22 03:30:16;;;;;;;15.00;6.78;;;;;;;;;;4987885;28;20050;-67
2021/09/22 03:32:44;;;;;;;15.10;6.78;;;;;;;;;;4986154;28;20347;-67
2021/09/22 03:35:13;;;;;;;13.52;6.50;;;;;;;;;;4986147;28;20149;-68
2021/09/22 03:37:41;;;;;;;11.65;6.03;;;;;;;;;;4987777;28;20125;-68
2021/09/22 03:40:12;;;;;;;14.70;6.15;;;;;;;;;;4989286;28;20050;-67
2021/09/22 03:42:49;;;;;;;12.77;6.80;;;;;;;;;;3335386;28;10021398;-68
2021/09/22 03:45:18;;;;;;;14.50;6.65;;;;;;;;;;2912253;28;10001962;-67
2021/09/22 03:47:46;;;;;;;14.80;6.30;;;;;;;;;;4990605;28;20406;-67
2021/09/22 03:50:14;;;;;;;13.82;6.30;;;;;;;;;;4990153;28;20039;-67
2021/09/22 03:52:42;;;;;;;17.58;7.47;;;;;;;;;;4990051;28;20429;-67
2021/09/22 03:55:12;;;;;;;12.70;6.15;;;;;;;;;;4991425;28;20045;-67
2021/09/22 03:57:40;;;;;;;14.30;6.82;;;;;;;;;;4993611;28;20125;-68
2021/09/22 04:00:09;;;;;;;13.85;6.38;;;;;;;;;;4993495;28;20060;-67
2021/09/22 04:02:38;;;;;;;14.80;6.60;;;;;;;;;;4991649;28;20060;-67
2021/09/22 04:05:07;;;;;;;11.70;6.13;;;;;;;;;;4993274;28;20449;-67
2021/09/22 04:07:35;;;;;;;12.65;6.57;;;;;;;;;;4993876;28;20558;-66
2021/09/22 04:10:04;;;;;;;14.85;6.32;;;;;;;;;;4982361;28;20562;-67
2021/09/22 04:12:34;;;;;;;11.95;6.32;;;;;;;;;;4983844;28;20068;-66
2021/09/22 04:15:02;;;;;;;14.95;7.25;;;;;;;;;;4993773;28;20054;-67
2021/09/22 04:17:31;;;;;;;15.52;6.40;;;;;;;;;;4995070;28;20042;-67
2021/09/22 04:19:59;;;;;;;13.98;7.18;;;;;;;;;;4994734;28;20052;-67
2021/09/22 04:22:27;;;;;;;12.00;6.65;;;;;;;;;;4991200;28;20140;-67
2021/09/22 04:24:55;;;;;;;15.43;7.20;;;;;;;;;;4991946;28;20129;-67
2021/09/22 04:27:24;;;;;;;14.65;7.00;;;;;;;;;;4977559;28;20422;-70
2021/09/22 04:29:54;;;;;;;12.52;6.25;;;;;;;;;;4983927;28;20050;-68
2021/09/22 04:32:22;;;;;;;14.40;7.05;;;;;;;;;;4993154;28;20152;-67
2021/09/22 04:34:51;;;;;;;17.33;7.30;;;;;;;;;;4993468;28;20400;-67
2021/09/22 04:37:19;;;;;;;16.58;7.15;;;;;;;;;;4982645;28;20329;-66
2021/09/22 04:39:47;;;;;;;11.13;6.25;;;;;;;;;;4989848;28;20053;-66
2021/09/22 04:42:16;;;;;;;17.98;7.15;;;;;;;;;;4992869;28;20143;-67
2021/09/22 04:44:45;;;;;;;13.30;6.28;;;;;;;;;;4993279;28;20077;-66
2021/09/22 04:47:14;;;;;;;16.23;6.93;;;;;;;;;;4991729;28;20046;-67
2021/09/22 04:49:42;;;;;;;15.20;6.47;;;;;;;;;;4990701;28;20070;-66
2021/09/22 04:52:11;;;;;;;16.08;7.15;;;;;;;;;;4992682;28;20047;-66
2021/09/22 04:54:40;;;;;;;12.77;6.45;;;;;;;;;;4993581;28;20054;-68
2021/09/22 04:57:08;;;;;;;14.07;6.45;;;;;;;;;;4991939;28;20050;-68
2021/09/22 04:59:36;;;;;;;15.95;7.10;;;;;;;;;;4986880;28;20110;-67
2021/09/22 05:02:05;;;;;;;12.18;6.63;;;;;;;;;;4992007;28;20489;-67
2021/09/22 05:04:35;;;;;;;16.90;7.25;;;;;;;;;;4991310;28;20409;-67
2021/09/22 05:07:04;;;;;;;14.32;6.38;;;;;;;;;;4991566;28;20038;-66
2021/09/22 05:09:33;;;;;;;15.57;6.85;;;;;;;;;;4992151;28;20487;-67
2021/09/22 05:12:01;;;;;;;16.58;6.63;;;;;;;;;;4987968;28;20479;-67
2021/09/22 05:14:29;;;;;;;13.40;6.95;;;;;;;;;;4989779;28;20104;-67
2021/09/22 05:16:58;;;;;;;13.98;6.68;;;;;;;;;;4991864;28;20050;-67
2021/09/22 05:19:26;;;;;;;13.32;6.40;;;;;;;;;;4990535;28;20145;-67
2021/09/22 05:21:56;;;;;;;12.48;5.88;;;;;;;;;;4987649;28;20050;-69
2021/09/22 05:24:24;;;;;;;15.32;7.25;;;;;;;;;;4987042;28;20054;-70
2021/09/22 05:26:53;;;;;;;15.48;6.97;;;;;;;;;;4988854;28;20057;-71
2021/09/22 05:29:21;;;;;;;11.05;6.45;;;;;;;;;;4986743;28;20054;-67
2021/09/22 05:31:49;;;;;;;13.98;6.75;;;;;;;;;;4988394;28;20093;-68
2021/09/22 05:34:18;;;;;;;15.13;7.10;;;;;;;;;;4977804;28;20055;-67
2021/09/22 05:36:46;;;;;;;13.20;6.50;;;;;;;;;;4983488;28;20509;-68
2021/09/22 05:39:16;;;;;;;14.07;6.28;;;;;;;;;;4988155;28;20080;-68
2021/09/22 05:41:44;;;;;;;16.67;7.10;;;;;;;;;;4987590;28;20540;-67
2021/09/22 05:44:12;;;;;;;14.57;7.03;;;;;;;;;;4985072;28;20259;-67
2021/09/22 05:46:40;;;;;;;16.00;6.53;;;;;;;;;;4980557;28;20107;-67
2021/09/22 05:49:09;;;;;;;14.93;7.18;;;;;;;;;;4988730;28;20108;-67
2021/09/22 05:51:37;;;;;;;13.93;6.43;;;;;;;;;;4987406;28;20544;-68
2021/09/22 05:54:05;;;;;;;19.55;7.15;;;;;;;;;;4987224;28;20176;-67
2021/09/22 05:56:35;;;;;;;13.27;6.72;;;;;;;;;;4987059;28;20050;-67
2021/09/22 05:59:04;;;;;;;14.38;6.75;;;;;;;;;;4985821;28;20050;-67
2021/09/22 06:01:32;;;;;;;16.40;6.68;;;;;;;;;;4986766;28;20101;-69
2021/09/22 06:04:01;;;;;;;16.88;7.18;;;;;;;;;;4982541;28;20572;-67
2021/09/22 06:06:29;;;;;;;19.65;7.68;;;;;;;;;;4980248;28;20074;-68
2021/09/22 06:08:58;;;;;;;17.55;6.85;;;;;;;;;;4984095;28;20143;-67
2021/09/22 06:11:26;;;;;;;13.43;7.00;;;;;;;;;;4987252;28;20125;-67
2021/09/22 06:13:56;;;;;;;15.90;7.45;;;;;;;;;;4987571;28;20054;-69
2021/09/22 06:16:26;;;;;;;15.98;7.50;;;;;;;;;;4987038;28;20085;-67
2021/09/22 06:18:54;;;;;;;17.02;7.10;;;;;;;;;;4980289;28;20140;-69
2021/09/22 06:21:23;;;;;;;15.18;7.60;;;;;;;;;;4986279;28;20506;-67
2021/09/22 06:23:53;;;;;;;11.82;6.85;;;;;;;;;;4987064;28;20052;-68
2021/09/22 06:26:22;;;;;;;14.60;7.45;;;;;;;;;;4987539;28;20125;-68
2021/09/22 06:28:58;;;;;;;14.40;6.95;;;;;;;;;;4976310;28;20555;-67
2021/09/22 06:31:30;;;;;;;15.05;7.38;;;;;;;;;;4979951;28;20057;-67
2021/09/22 06:33:59;;;;;;;15.60;7.28;;;;;;;;;;4987171;28;20046;-68
2021/09/22 06:36:34;;;;;;;19.10;7.65;;;;;;;;;;4989103;28;20050;-67
2021/09/22 06:39:03;;;;;;;22.23;8.95;;;;;;;;;;4989529;28;20078;-66
2021/09/22 06:41:39;;;;;;;20.23;8.43;;;;;;;;;;4988953;28;20053;-68
2021/09/22 06:44:09;;;;;;;19.77;8.38;;;;;;;;;;4984969;28;20050;-67
2021/09/22 06:46:37;;;;;;;21.15;8.73;;;;;;;;;;4989717;28;20057;-67
2021/09/22 06:49:06;;;;;;;17.02;7.75;;;;;;;;;;4988020;28;20442;-68
2021/09/22 06:51:41;;;;;;;16.45;8.18;;;;;;;;;;4976343;28;20093;-68
2021/09/22 06:54:09;;;;;;;19.85;8.93;;;;;;;;;;4987824;28;20066;-67
2021/09/22 06:56:38;;;;;;;18.63;8.52;;;;;;;;;;4988269;28;20052;-68
2021/09/22 06:59:06;;;;;;;18.75;9.10;;;;;;;;;;4988600;28;20085;-68
2021/09/22 07:01:36;;;;;;;22.77;9.73;;;;;;;;;;4989788;28;20046;-68
2021/09/22 07:04:12;;;;;;;22.75;9.85;;;;;;;;;;4985066;28;20058;-68
2021/09/22 07:06:41;;;;;;;21.38;10.68;;;;;;;;;;4990109;28;20046;-67
2021/09/22 07:09:10;;;;;;;24.65;10.13;;;;;;;;;;4991928;28;20050;-67
2021/09/22 07:11:39;;;;;;;18.05;9.07;;;;;;;;;;4990113;28;20054;-67
2021/09/22 07:14:08;;;;;;;21.58;9.98;;;;;;;;;;4989069;28;20608;-67
2021/09/22 07:16:38;;;;;;;21.80;10.38;;;;;;;;;;4989580;28;20524;-67
2021/09/22 07:19:07;;;;;;;21.88;9.57;;;;;;;;;;5001555;28;20046;-67
2021/09/22 07:21:36;;;;;;;21.23;9.60;;;;;;;;;;4986487;28;20050;-66
2021/09/22 07:24:05;;;;;;;20.70;9.27;;;;;;;;;;4989818;28;20046;-67
2021/09/22 07:26:34;;;;;;;21.73;9.32;;;;;;;;;;4989854;28;20078;-68
2021/09/22 07:29:03;;;;;;;19.52;8.88;;;;;;;;;;4989396;28;20062;-67
2021/09/22 07:31:31;;;;;;;16.73;8.30;;;;;;;;;;4992639;28;20061;-67
2021/09/22 07:34:02;;;;;;;20.60;9.15;;;;;;;;;;4992421;28;20054;-66
2021/09/22 07:36:31;;;;;;;23.23;9.18;;;;;;;;;;4993618;28;20103;-67
2021/09/22 07:38:59;;;;;;;18.40;8.52;;;;;;;;;;4990747;28;20050;-67
2021/09/22 07:41:28;;;;;;;17.75;9.65;;;;;;;;;;4992209;28;20049;-68
2021/09/22 07:43:56;;;;;;;19.73;9.32;;;;;;;;;;4993434;28;20387;-66
2021/09/22 07:46:25;;;;;;;16.90;7.50;;;;;;;;;;4993143;28;20457;-66
2021/09/22 07:48:53;;;;;;;24.58;9.13;;;;;;;;;;4993834;28;20062;-70
2021/09/22 07:51:23;;;;;;;17.23;8.63;;;;;;;;;;4993304;28;20413;-67
2021/09/22 07:53:52;;;;;;;22.52;8.73;;;;;;;;;;4981937;28;20051;-66
2021/09/22 07:56:20;;;;;;;19.92;9.07;;;;;;;;;;4991206;28;20406;-66
2021/09/22 07:58:49;;;;;;;18.45;8.13;;;;;;;;;;4992450;28;20140;-67
2021/09/22 08:01:19;;;;;;;17.98;8.82;;;;;;;;;;4983705;28;20046;-66
2021/09/22 08:03:51;;;;;;;19.33;8.23;;;;;;;;;;4993468;28;20101;-67
2021/09/22 08:06:20;;;;;;;17.88;8.85;;;;;;;;;;4991037;28;20503;-67
2021/09/22 08:08:50;;;;;;;19.02;7.35;;;;;;;;;;4994017;28;20141;-67
2021/09/22 08:11:20;;;;;;;15.32;7.95;;;;;;;;;;4988463;28;20502;-67
2021/09/22 08:13:48;;;;;;;16.25;8.60;;;;;;;;;;4993069;28;20077;-68
2021/09/22 08:16:17;;;;;;;15.65;7.95;;;;;;;;;;4993429;28;20503;-66
2021/09/22 08:18:46;;;;;;;17.38;8.23;;;;;;;;;;4992880;28;20050;-66
2021/09/22 08:21:15;;;;;;;13.52;7.05;;;;;;;;;;4992756;28;20116;-67
2021/09/22 08:23:44;;;;;;;13.10;7.28;;;;;;;;;;4992748;28;20042;-67
2021/09/22 08:26:14;;;;;;;13.00;7.13;;;;;;;;;;4989197;28;20065;-66
2021/09/22 08:28:43;;;;;;;19.40;7.78;;;;;;;;;;4993542;28;20046;-66
2021/09/22 08:31:12;;;;;;;14.75;8.10;;;;;;;;;;4992027;28;20046;-66
2021/09/22 08:33:41;;;;;;;13.45;7.80;;;;;;;;;;4991835;28;20133;-67
2021/09/22 08:36:10;;;;;;;14.82;7.38;;;;;;;;;;4992393;28;20050;-68
2021/09/22 08:38:38;;;;;;;14.18;7.40;;;;;;;;;;4993182;28;20058;-67
2021/09/22 08:41:07;;;;;;;18.75;7.93;;;;;;;;;;4988399;28;20470;-66
2021/09/22 08:43:37;;;;;;;12.07;6.57;;;;;;;;;;4992633;28;20058;-67
2021/09/22 08:46:06;;;;;;;15.65;7.40;;;;;;;;;;4991176;28;20130;-66
2021/09/22 08:48:36;;;;;;;16.27;8.30;;;;;;;;;;4992585;28;20085;-67
2021/09/22 08:51:04;;;;;;;14.88;7.45;;;;;;;;;;4991870;28;20462;-66
2021/09/22 08:53:33;;;;;;;15.40;7.22;;;;;;;;;;4983568;28;20050;-67
2021/09/22 08:56:05;;;;;;;19.23;8.05;;;;;;;;;;4988545;28;20120;-66
2021/09/22 08:58:33;;;;;;;16.20;7.05;;;;;;;;;;4992520;28;20487;-66
2021/09/22 09:01:13;;;;;;;15.02;6.97;;;;;;;;;;4991102;28;20058;-66
2021/09/22 09:03:43;;;;;;;11.88;6.70;;;;;;;;;;4991722;28;20042;-66
2021/09/22 09:06:16;;;;;;;12.98;6.93;;;;;;;;;;4992448;28;20050;-67
2021/09/22 09:08:45;;;;;;;15.68;7.30;;;;;;;;;;4992229;28;20668;-66
2021/09/22 09:11:14;;;;;;;17.67;6.97;;;;;;;;;;4991675;28;20043;-66
2021/09/22 09:13:47;;;;;;;10.23;6.07;;;;;;;;;;4990435;28;20069;-67
2021/09/22 09:16:19;;;;;;;13.50;6.47;;;;;;;;;;4989669;28;20043;-67
2021/09/22 09:18:48;;;;;;;11.27;5.72;;;;;;;;;;4992173;28;20042;-66
2021/09/22 09:21:17;;;;;;;11.10;5.78;;;;;;;;;;4990382;28;20038;-69
2021/09/22 09:23:51;;;;;;;10.88;5.65;;;;;;;;;;4979081;28;20043;-66
2021/09/22 09:26:22;;;;;;;10.63;5.18;;;;;;;;;;4992001;28;20129;-67
2021/09/22 09:28:51;;;;;;;8.48;4.63;;;;;;;;;;4992024;28;20469;-66
2021/09/22 09:31:22;;;;;;;10.02;5.22;;;;;;;;;;4991978;28;20054;-68
2021/09/22 09:33:52;;;;;;;8.70;4.90;;;;;;;;;;4990802;28;20042;-67
2021/09/22 09:36:23;;;;;;;6.38;4.40;;;;;;;;;;4992007;28;20052;-67
2021/09/22 09:38:54;;;;;;;7.63;4.03;;;;;;;;;;4990800;28;20112;-66
2021/09/22 09:41:27;;;;;;;10.27;4.47;;;;;;;;;;4986984;28;20496;-66
2021/09/22 09:43:56;;;;;;;8.75;4.22;;;;;;;;;;4989819;28;20076;-66
2021/09/22 09:46:28;;;;;;;11.30;4.60;;;;;;;;;;4991104;28;20509;-67
2021/09/22 09:48:58;;;;;;;7.15;4.85;;;;;;;;;;4991338;28;20050;-66
2021/09/22 09:51:41;;;;;;;9.00;5.50;;;;;;;;;;4991687;28;20450;-66
2021/09/22 09:54:15;;;;;;;8.32;4.22;;;;;;;;;;4979150;28;20050;-66
2021/09/22 09:56:43;;;;;;;7.80;4.10;;;;;;;;;;4991054;28;20054;-67
2021/09/22 09:59:12;;;;;;;10.25;5.00;;;;;;;;;;4991254;28;20081;-69
2021/09/22 10:01:46;;;;;;;7.72;4.95;;;;;;;;;;4990308;28;20050;-67
2021/09/22 10:04:16;;;;;;;7.63;4.37;;;;;;;;;;4990877;28;20156;-70
2021/09/22 10:06:46;;;;;;;5.95;3.50;;;;;;;;;;4991030;28;20305;-66
2021/09/22 10:09:15;;;;;;;7.03;3.72;;;;;;;;;;4988931;28;20046;-67
2021/09/22 10:11:45;;;;;;;8.38;4.50;;;;;;;;;;4990815;28;20081;-67
2021/09/22 10:14:15;;;;;;;7.50;4.07;;;;;;;;;;4976488;28;20038;-67
2021/09/22 10:16:45;;;;;;;10.35;4.70;;;;;;;;;;4989173;28;20049;-67
2021/09/22 10:19:13;;;;;;;9.00;4.35;;;;;;;;;;4991173;28;20456;-67
2021/09/22 10:21:42;;;;;;;8.38;3.95;;;;;;;;;;4990966;28;20119;-66
2021/09/22 10:24:11;;;;;;;9.13;4.80;;;;;;;;;;4990602;28;20046;-66
2021/09/22 10:26:40;;;;;;;8.20;4.18;;;;;;;;;;4988283;28;20050;-67
2021/09/22 10:29:23;;;;;;;7.13;4.13;;;;;;;;;;4990723;28;20533;-67
2021/09/22 10:31:53;;;;;;;9.07;4.10;;;;;;;;;;4990162;28;20070;-68
2021/09/22 10:34:31;;;;;;;7.90;3.40;;;;;;;;;;4989171;28;20074;-68
2021/09/22 10:37:00;;;;;;;6.40;3.35;;;;;;;;;;4989929;28;20384;-66
2021/09/22 10:39:41;;;;;;;6.60;3.28;;;;;;;;;;4990474;28;20096;-66
2021/09/22 10:42:26;;;;;;;5.78;3.08;;;;;;;;;;4990395;28;20077;-66
2021/09/22 10:45:10;;;;;;;9.38;4.05;;;;;;;;;;4987230;28;20058;-72
2021/09/22 10:47:40;;;;;;;6.47;3.92;;;;;;;;;;4990893;28;20077;-67
2021/09/22 10:50:14;;;;;;;8.88;3.60;;;;;;;;;;4990554;28;20042;-66
2021/09/22 10:52:43;;;;;;;8.60;4.07;;;;;;;;;;4989309;28;20494;-66
2021/09/22 10:55:14;;;;;;;6.78;3.70;;;;;;;;;;4989006;28;20042;-66
2021/09/22 10:57:43;;;;;;;5.78;3.55;;;;;;;;;;4989097;28;20046;-68
2021/09/22 11:00:13;;;;;;;9.20;4.05;;;;;;;;;;4986805;28;20070;-67
2021/09/22 11:02:45;;;;;;;5.47;3.47;;;;;;;;;;4990793;28;20081;-66
2021/09/22 11:05:14;;;;;;;6.00;3.53;;;;;;;;;;4988912;28;20050;-66
2021/09/22 11:07:56;;;;;;;9.98;4.18;;;;;;;;;;4989650;28;20540;-66
2021/09/22 11:10:46;;;;;;;5.93;3.92;;;;;;;;;;4990241;28;20104;-68
2021/09/22 11:13:32;;;;;;;5.43;3.45;;;;;;;;;;4981434;28;20173;-66
2021/09/22 11:16:20;;;;;;;5.35;3.15;;;;;;;;;;4980291;28;20534;-66
2021/09/22 11:18:54;;;;;;;4.10;2.97;;;;;;;;;;4979413;28;20053;-67
2021/09/22 11:21:23;;;;;;;4.40;3.15;;;;;;;;;;4990477;28;20084;-66
2021/09/22 11:23:52;;;;;;;7.57;3.78;;;;;;;;;;4988961;28;20438;-66
2021/09/22 11:26:20;;;;;;;8.00;3.75;;;;;;;;;;4990994;28;20046;-68
2021/09/22 11:28:50;;;;;;;7.43;4.00;;;;;;;;;;4985876;28;20081;-67
2021/09/22 11:31:21;;;;;;;8.30;4.68;;;;;;;;;;4983655;28;20082;-68
2021/09/22 11:33:57;;;;;;;8.13;4.30;;;;;;;;;;4988416;28;20070;-66
2021/09/22 11:36:28;;;;;;;7.97;4.07;;;;;;;;;;4989133;28;20414;-68
2021/09/22 11:38:57;;;;;;;6.32;3.97;;;;;;;;;;4990304;28;20050;-67
2021/09/22 11:41:34;;;;;;;7.68;4.30;;;;;;;;;;4989768;28;20383;-67
2021/09/22 11:44:06;;;;;;;7.75;3.90;;;;;;;;;;4988971;28;20053;-66
2021/09/22 11:46:35;;;;;;;7.13;3.60;;;;;;;;;;4973962;28;20050;-67
2021/09/22 11:49:06;;;;;;;7.15;3.67;;;;;;;;;;4984202;28;20054;-66
2021/09/22 11:51:34;;;;;;;7.25;4.10;;;;;;;;;;4984770;28;20050;-67
2021/09/22 11:54:03;;;;;;;5.55;3.55;;;;;;;;;;4982248;28;20061;-67
2021/09/22 11:56:31;;;;;;;8.27;3.83;;;;;;;;;;4987795;28;20128;-67
2021/09/22 11:59:00;;;;;;;5.05;3.13;;;;;;;;;;4988220;28;20050;-67
2021/09/22 12:01:28;;;;;;;3.70;2.60;;;;;;;;;;4988473;28;20050;-69
2021/09/22 12:03:57;;;;;;;5.35;2.50;;;;;;;;;;4988963;28;20054;-67
2021/09/22 12:06:29;;;;;;;4.13;2.47;;;;;;;;;;4989673;28;20057;-67
2021/09/22 12:08:57;;;;;;;6.70;3.25;;;;;;;;;;4984188;28;20060;-67
2021/09/22 12:11:26;;;;;;;4.85;2.70;;;;;;;;;;4969275;28;20059;-67
2021/09/22 12:13:54;;;;;;;4.35;1.98;;;;;;;;;;4977474;28;20141;-69
2021/09/22 12:16:29;;;;;;;3.90;2.20;;;;;;;;;;4990638;28;20049;-68
2021/09/22 12:18:58;;;;;;;4.27;2.30;;;;;;;;;;4989769;28;20046;-67
2021/09/22 12:21:29;;;;;;;3.90;1.90;;;;;;;;;;4987045;28;20331;-67
2021/09/22 12:24:02;;;;;;;5.43;2.40;;;;;;;;;;4988323;28;20538;-67
2021/09/22 12:26:30;;;;;;;4.85;1.98;;;;;;;;;;4990038;28;20434;-68
2021/09/22 12:29:06;;;;;;;5.63;2.50;;;;;;;;;;4989184;28;20054;-67
2021/09/22 12:31:38;;;;;;;5.70;2.78;;;;;;;;;;4979829;28;20054;-68
2021/09/22 12:34:14;;;;;;;4.90;2.35;;;;;;;;;;4978623;28;20053;-67
2021/09/22 12:36:46;;;;;;;4.82;2.58;;;;;;;;;;4984668;28;20085;-68
2021/09/22 12:39:15;;;;;;;4.28;1.98;;;;;;;;;;4986342;28;20714;-68
2021/09/22 12:41:58;;;;;;;5.32;2.42;;;;;;;;;;4977704;28;20046;-67
2021/09/22 12:44:26;;;;;;;4.63;2.22;;;;;;;;;;4975638;28;20093;-68
2021/09/22 12:46:55;;;;;;;4.70;2.80;;;;;;;;;;4982290;28;20136;-69
2021/09/22 12:49:24;;;;;;;5.20;2.20;;;;;;;;;;4989536;28;20085;-67
2021/09/22 12:51:55;;;;;;;5.57;2.03;;;;;;;;;;4988245;28;20573;-67
2021/09/22 12:54:24;;;;;;;5.15;2.90;;;;;;;;;;4987745;28;20050;-67
2021/09/22 12:56:53;;;;;;;4.15;2.20;;;;;;;;;;4988293;28;20050;-67
2021/09/22 12:59:27;;;;;;;4.00;2.00;;;;;;;;;;4986098;28;20057;-68
2021/09/22 13:01:57;;;;;;;;;;;;;;;;;;4978475;28;20113;-70
2021/09/22 13:04:27;;;;;;;3.13;1.98;;;;;;;;;;4978205;28;19976;-70
2021/09/22 13:06:58;;;;;;;4.47;2.30;;;;;;;;;;4975804;28;20210;-70
2021/09/22 13:09:32;;;;;;;4.93;2.13;;;;;;;;;;4983500;28;20132;-68
2021/09/22 13:12:02;;;;;;;3.60;2.50;;;;;;;;;;4988951;28;20069;-68
2021/09/22 13:14:37;;;;;;;3.42;2.22;;;;;;;;;;4977638;28;20458;-68
2021/09/22 13:17:06;;;;;;;4.35;2.40;;;;;;;;;;4971944;28;20509;-68
2021/09/22 13:19:35;;;;;;;5.00;2.28;;;;;;;;;;4982687;28;20053;-67
2021/09/22 13:22:09;;;;;;;2.90;1.75;;;;;;;;;;4982055;28;20053;-66
2021/09/22 13:24:38;;;;;;;2.95;2.08;;;;;;;;;;4981672;28;20501;-67
2021/09/22 13:27:07;;;;;;;3.92;2.30;;;;;;;;;;4984931;28;20113;-67
2021/09/22 13:29:35;;;;;;;5.68;2.20;;;;;;;;;;4980680;28;20092;-67
2021/09/22 13:32:05;;;;;;;4.35;2.30;;;;;;;;;;4971404;28;20455;-68
2021/09/22 13:34:34;;;;;;;4.97;2.05;;;;;;;;;;4971861;28;20054;-69
2021/09/22 13:37:04;;;;;;;3.75;2.42;;;;;;;;;;4986315;28;20147;-68
2021/09/22 13:39:35;;;;;;;2.83;1.77;;;;;;;;;;4984095;28;20054;-68
2021/09/22 13:42:03;;;;;;;3.70;2.10;;;;;;;;;;4986045;28;20545;-67
2021/09/22 13:44:32;;;;;;;4.82;1.83;;;;;;;;;;4984178;28;20057;-68
2021/09/22 13:47:00;;;;;;;3.63;1.90;;;;;;;;;;4988852;28;20162;-67
2021/09/22 13:49:29;;;;;;;3.78;2.22;;;;;;;;;;4988249;28;20046;-67
2021/09/22 13:51:58;;;;;;;8.07;1.92;;;;;;;;;;4984902;28;20051;-67
2021/09/22 13:54:26;;;;;;;3.47;1.98;;;;;;;;;;4977425;28;20138;-68
2021/09/22 13:56:56;;;;;;;4.55;2.70;;;;;;;;;;4986032;28;20054;-69
2021/09/22 13:59:24;;;;;;;2.97;2.10;;;;;;;;;;4982538;28;20061;-67
2021/09/22 14:01:55;;;;;;;3.03;2.08;;;;;;;;;;4986668;28;20116;-69
2021/09/22 14:04:24;;;;;;;5.75;2.30;;;;;;;;;;4986755;28;20080;-67
2021/09/22 14:06:53;;;;;;;5.00;2.28;;;;;;;;;;4990944;28;20062;-68
2021/09/22 14:09:22;;;;;;;5.30;2.35;;;;;;;;;;4989139;28;20053;-67
2021/09/22 14:11:51;;;;;;;4.47;2.25;;;;;;;;;;4990301;28;20050;-68
2021/09/22 14:14:21;;;;;;;3.30;2.13;;;;;;;;;;4990275;28;20069;-67
2021/09/22 14:16:57;;;;;;;4.85;2.50;;;;;;;;;;4990679;28;20069;-71
2021/09/22 14:19:25;;;;;;;3.78;2.15;;;;;;;;;;4990391;28;20105;-68
2021/09/22 14:21:54;;;;;;;6.15;2.08;;;;;;;;;;4989829;28;20058;-69
2021/09/22 14:24:22;;;;;;;3.58;2.17;;;;;;;;;;4986872;28;20042;-67
2021/09/22 14:26:54;;;;;;;6.15;2.00;;;;;;;;;;4990370;28;20058;-67
2021/09/22 14:29:24;;;;;;;3.45;1.88;;;;;;;;;;4991328;28;20054;-68
2021/09/22 14:31:53;;;;;;;3.30;1.80;;;;;;;;;;4991310;28;20514;-68
2021/09/22 14:34:22;;;;;;;4.25;2.50;;;;;;;;;;4991759;28;20057;-68
2021/09/22 14:36:50;;;;;;;5.28;2.38;;;;;;;;;;4992855;28;20061;-66
2021/09/22 14:39:20;;;;;;;5.75;2.05;;;;;;;;;;4992887;28;20428;-66
2021/09/22 14:41:49;;;;;;;4.78;2.15;;;;;;;;;;4993778;28;20557;-67
2021/09/22 14:44:18;;;;;;;4.60;1.88;;;;;;;;;;4985527;28;20486;-66
2021/09/22 14:46:48;;;;;;;4.53;2.17;;;;;;;;;;4988963;28;20050;-67
2021/09/22 14:49:17;;;;;;;4.55;1.90;;;;;;;;;;4983341;28;20062;-70